Time;durP1;ratioP1;P1;durP2;ratioP2;P2;SDS_P1;SDS_P2;PMS_P1;PMS_P2;Temp;Humidity;BMP_temperature;BMP_pressure;BME280_temperature;BME280_humidity;BME280_pressure;Samples;Min_cycle;Max_cycle;Signal;HPM_P1;HPM_P2
2024/01/08 00:02:19;;;;;;;;;;;;;;;;;;5008795;28;19950;-70
2024/01/08 00:04:44;;;;;;;;;;;;;;;;;;5009835;28;19922;-70
2024/01/08 00:07:09;;;;;;;;;;;;;;;;;;5010136;28;19917;-71
2024/01/08 00:09:34;;;;;;;;;;;;;;;;;;5010100;28;20016;-71
2024/01/08 00:12:00;;;;;;;;;;;;;;;;;;5010122;28;19964;-71
2024/01/08 00:14:25;;;;;;;;;;;;;;;;;;5009463;28;19917;-71
2024/01/08 00:16:50;;;;;;;;;;;;;;;;;;5008775;28;19925;-71
2024/01/08 00:19:16;;;;;;;;;;;;;;;;;;5009439;28;19921;-71
2024/01/08 00:21:41;;;;;;;;;;;;;;;;;;5008402;28;19917;-71
2024/01/08 00:24:06;;;;;;;;;;;;;;;;;;5026117;28;19960;-71
2024/01/08 00:26:31;;;;;;;;;;;;;;;;;;5009280;28;19917;-71
2024/01/08 00:28:58;;;;;;;;;;;;;;;;;;5029677;28;19917;-71
2024/01/08 00:31:23;;;;;;;;;;;;;;;;;;5009561;28;19922;-71
2024/01/08 00:33:49;;;;;;;;;;;;;;;;;;5008194;28;19917;-71
2024/01/08 00:36:14;;;;;;;;;;;;;;;;;;5008896;28;20378;-71
2024/01/08 00:38:39;;;;;;;;;;;;;;;;;;5008439;28;20012;-70
2024/01/08 00:41:04;;;;;;;;;;;;;;;;;;5009700;28;19917;-70
2024/01/08 00:43:29;;;;;;;;;;;;;;;;;;5009587;28;20303;-71
2024/01/08 00:45:54;;;;;;;;;;;;;;;;;;5009224;28;19953;-70
2024/01/08 00:48:20;;;;;;;;;;;;;;;;;;5009191;28;20008;-70
2024/01/08 00:50:45;;;;;;;;;;;;;;;;;;5009763;28;20444;-71
2024/01/08 00:53:10;;;;;;;;;;;;;;;;;;5008526;28;19923;-70
2024/01/08 00:55:35;;;;;;;;;;;;;;;;;;5010255;28;19918;-70
2024/01/08 00:58:00;;;;;;;;;;;;;;;;;;5010428;28;19953;-70
2024/01/08 01:00:25;;;;;;;;;;;;;;;;;;5011089;28;20046;-71
2024/01/08 01:02:50;;;;;;;;;;;;;;;;;;5010256;28;20340;-70
2024/01/08 01:05:15;;;;;;;;;;;;;;;;;;5010432;28;19928;-70
2024/01/08 01:07:40;;;;;;;;;;;;;;;;;;5009671;28;19924;-70
2024/01/08 01:10:06;;;;;;;;;;;;;;;;;;5010299;28;20405;-70
2024/01/08 01:12:31;;;;;;;;;;;;;;;;;;5010331;28;19918;-70
2024/01/08 01:14:56;;;;;;;;;;;;;;;;;;5009818;28;19971;-70
2024/01/08 01:17:21;;;;;;;;;;;;;;;;;;5009788;28;20383;-70
2024/01/08 01:19:46;;;;;;;;;;;;;;;;;;5009665;28;20424;-69
2024/01/08 01:22:11;;;;;;;;;;;;;;;;;;5009689;28;19921;-70
2024/01/08 01:24:36;;;;;;;;;;;;;;;;;;5009723;28;19932;-70
2024/01/08 01:27:01;;;;;;;;;;;;;;;;;;5010023;28;19917;-70
2024/01/08 01:29:27;;;;;;;;;;;;;;;;;;5010265;28;19949;-70
2024/01/08 01:31:52;;;;;;;;;;;;;;;;;;5009819;28;19945;-70
2024/01/08 01:34:17;;;;;;;;;;;;;;;;;;5009314;28;19922;-70
2024/01/08 01:36:44;;;;;;;;;;;;;;;;;;5009057;28;19922;-71
2024/01/08 01:39:10;;;;;;;;;;;;;;;;;;5010009;28;19929;-70
2024/01/08 01:41:35;;;;;;;;;;;;;;;;;;5009753;28;19926;-71
2024/01/08 01:44:00;;;;;;;;;;;;;;;;;;5007804;28;20240;-71
2024/01/08 01:46:25;;;;;;;;;;;;;;;;;;5009186;28;20700;-70
2024/01/08 01:48:50;;;;;;;;;;;;;;;;;;5009961;28;19918;-71
2024/01/08 01:51:16;;;;;;;;;;;;;;;;;;5009386;28;19932;-70
2024/01/08 01:53:41;;;;;;;;;;;;;;;;;;5010101;28;19925;-72
2024/01/08 01:56:06;;;;;;;;;;;;;;;;;;5027019;28;19937;-70
2024/01/08 01:58:31;;;;;;;;;;;;;;;;;;5013528;28;19935;-70
2024/01/08 02:00:56;;;;;;;;;;;;;;;;;;5013693;28;19925;-70
2024/01/08 02:03:21;;;;;;;;;;;;;;;;;;5013695;28;20011;-72
2024/01/08 02:05:46;;;;;;;;;;;;;;;;;;5013307;28;19921;-70
2024/01/08 02:08:11;;;;;;;;;;;;;;;;;;5013384;28;20008;-70
2024/01/08 02:10:40;;;;;;;;;;;;;;;;;;5013408;28;19921;-70
2024/01/08 02:13:05;;;;;;;;;;;;;;;;;;5005378;28;19921;-71
2024/01/08 02:15:30;;;;;;;;;;;;;;;;;;5008337;28;19926;-70
2024/01/08 02:17:55;;;;;;;;;;;;;;;;;;5012155;28;19928;-69
2024/01/08 02:20:20;;;;;;;;;;;;;;;;;;5012775;28;19992;-70
2024/01/08 02:22:45;;;;;;;;;;;;;;;;;;5013301;28;19921;-70
2024/01/08 02:25:10;;;;;;;;;;;;;;;;;;5013709;28;19959;-70
2024/01/08 02:27:35;;;;;;;;;;;;;;;;;;5013154;28;19929;-70
2024/01/08 02:30:00;;;;;;;;;;;;;;;;;;5012797;28;19928;-72
2024/01/08 02:32:25;;;;;;;;;;;;;;;;;;5012665;28;20311;-70
2024/01/08 02:34:50;;;;;;;;;;;;;;;;;;5013207;28;19921;-70
2024/01/08 02:37:16;;;;;;;;;;;;;;;;;;5012696;28;19937;-70
2024/01/08 02:39:41;;;;;;;;;;;;;;;;;;5012453;28;19925;-70
2024/01/08 02:42:06;;;;;;;;;;;;;;;;;;5012517;28;19933;-70
2024/01/08 02:44:31;;;;;;;;;;;;;;;;;;5012727;28;19979;-70
2024/01/08 02:46:56;;;;;;;;;;;;;;;;;;5011111;28;19928;-70
2024/01/08 02:49:21;;;;;;;;;;;;;;;;;;5012791;28;19928;-70
2024/01/08 02:51:46;;;;;;;;;;;;;;;;;;5011461;28;20004;-70
2024/01/08 02:54:11;;;;;;;;;;;;;;;;;;5012436;28;19917;-70
2024/01/08 02:56:37;;;;;;;;;;;;;;;;;;5012280;28;19951;-70
2024/01/08 02:59:06;;;;;;;;;;;;;;;;;;5012135;28;19926;-70
2024/01/08 03:01:31;;;;;;;;;;;;;;;;;;5011965;28;19918;-70
2024/01/08 03:03:56;;;;;;;;;;;;;;;;;;5012629;28;19936;-70
2024/01/08 03:06:21;;;;;;;;;;;;;;;;;;5011800;28;19926;-70
2024/01/08 03:08:46;;;;;;;;;;;;;;;;;;5030976;28;19947;-70
2024/01/08 03:11:12;;;;;;;;;;;;;;;;;;5012954;28;19918;-70
2024/01/08 03:13:37;;;;;;;;;;;;;;;;;;5012331;28;19921;-70
2024/01/08 03:16:02;;;;;;;;;;;;;;;;;;5012413;28;19931;-70
2024/01/08 03:18:27;;;;;;;;;;;;;;;;;;5011696;28;19921;-70
2024/01/08 03:20:52;;;;;;;;;;;;;;;;;;5011570;28;19944;-70
2024/01/08 03:23:17;;;;;;;;;;;;;;;;;;5012086;28;19918;-70
2024/01/08 03:25:42;;;;;;;;;;;;;;;;;;5012141;28;19943;-70
2024/01/08 03:28:07;;;;;;;;;;;;;;;;;;5011819;28;20460;-71
2024/01/08 03:30:33;;;;;;;;;;;;;;;;;;5012176;28;19926;-70
2024/01/08 03:32:59;;;;;;;;;;;;;;;;;;5012530;28;20433;-70
2024/01/08 03:35:24;;;;;;;;;;;;;;;;;;5012342;28;19967;-70
2024/01/08 03:37:49;;;;;;;;;;;;;;;;;;5011043;28;19957;-70
2024/01/08 03:40:15;;;;;;;;;;;;;;;;;;5011697;28;19983;-70
2024/01/08 03:42:40;;;;;;;;;;;;;;;;;;5011851;28;19922;-70
2024/01/08 03:45:05;;;;;;;;;;;;;;;;;;5011463;28;19926;-70
2024/01/08 03:47:30;;;;;;;;;;;;;;;;;;5011230;28;19921;-69
2024/01/08 03:49:55;;;;;;;;;;;;;;;;;;5011975;28;20021;-70
2024/01/08 03:52:20;;;;;;;;;;;;;;;;;;5011379;28;19933;-70
2024/01/08 03:54:46;;;;;;;;;;;;;;;;;;5011887;28;19928;-70
2024/01/08 03:57:11;;;;;;;;;;;;;;;;;;5011824;28;19921;-70
2024/01/08 03:59:36;;;;;;;;;;;;;;;;;;5011430;28;19929;-70
2024/01/08 04:02:01;;;;;;;;;;;;;;;;;;5011054;28;20268;-71
2024/01/08 04:04:26;;;;;;;;;;;;;;;;;;5009962;28;19922;-70
2024/01/08 04:06:51;;;;;;;;;;;;;;;;;;5007710;28;19917;-70
2024/01/08 04:09:17;;;;;;;;;;;;;;;;;;5011779;28;19917;-69
2024/01/08 04:11:42;;;;;;;;;;;;;;;;;;5011259;28;19922;-70
2024/01/08 04:14:07;;;;;;;;;;;;;;;;;;5010742;28;19945;-71
2024/01/08 04:16:32;;;;;;;;;;;;;;;;;;5011591;28;20279;-71
2024/01/08 04:18:57;;;;;;;;;;;;;;;;;;5011011;28;20378;-69
2024/01/08 04:21:22;;;;;;;;;;;;;;;;;;5011739;28;19918;-70
2024/01/08 04:23:48;;;;;;;;;;;;;;;;;;5011245;28;19959;-70
2024/01/08 04:26:13;;;;;;;;;;;;;;;;;;5010712;28;19917;-70
2024/01/08 04:28:38;;;;;;;;;;;;;;;;;;5011069;28;19917;-70
2024/01/08 04:31:03;;;;;;;;;;;;;;;;;;5011568;28;19926;-69
2024/01/08 04:33:28;;;;;;;;;;;;;;;;;;5011575;28;19944;-70
2024/01/08 04:35:53;;;;;;;;;;;;;;;;;;5011197;28;20440;-70
2024/01/08 04:38:18;;;;;;;;;;;;;;;;;;5010774;28;19973;-70
2024/01/08 04:40:43;;;;;;;;;;;;;;;;;;5012140;28;20518;-70
2024/01/08 04:43:08;;;;;;;;;;;;;;;;;;5011339;28;20003;-70
2024/01/08 04:45:33;;;;;;;;;;;;;;;;;;5011519;28;19976;-70
2024/01/08 04:47:58;;;;;;;;;;;;;;;;;;5011500;28;19976;-71
2024/01/08 04:50:24;;;;;;;;;;;;;;;;;;5026388;28;20009;-70
2024/01/08 04:52:49;;;;;;;;;;;;;;;;;;5008031;28;19921;-71
2024/01/08 04:55:14;;;;;;;;;;;;;;;;;;5011530;28;19984;-70
2024/01/08 04:57:39;;;;;;;;;;;;;;;;;;5011326;28;19921;-70
2024/01/08 05:00:04;;;;;;;;;;;;;;;;;;5011358;28;19936;-70
2024/01/08 05:02:30;;;;;;;;;;;;;;;;;;5011145;28;19929;-71
2024/01/08 05:04:55;;;;;;;;;;;;;;;;;;5011543;28;19929;-71
2024/01/08 05:07:20;;;;;;;;;;;;;;;;;;5011504;28;19924;-71
2024/01/08 05:09:45;;;;;;;;;;;;;;;;;;5011717;28;20027;-71
2024/01/08 05:12:10;;;;;;;;;;;;;;;;;;5010419;28;19925;-71
2024/01/08 05:14:35;;;;;;;;;;;;;;;;;;5010901;28;19921;-71
2024/01/08 05:17:00;;;;;;;;;;;;;;;;;;5011053;28;19921;-71
2024/01/08 05:19:25;;;;;;;;;;;;;;;;;;5011434;28;20029;-69
2024/01/08 05:21:53;;;;;;;;;;;;;;;;;;5010986;28;20028;-71
2024/01/08 05:24:18;;;;;;;;;;;;;;;;;;5008159;28;19949;-71
2024/01/08 05:26:43;;;;;;;;;;;;;;;;;;5010118;28;20291;-71
2024/01/08 05:29:08;;;;;;;;;;;;;;;;;;5009858;28;19976;-71
2024/01/08 05:31:33;;;;;;;;;;;;;;;;;;5010459;28;19922;-70
2024/01/08 05:33:58;;;;;;;;;;;;;;;;;;5009610;28;19918;-70
2024/01/08 05:36:23;;;;;;;;;;;;;;;;;;5009682;28;19946;-71
2024/01/08 05:38:48;;;;;;;;;;;;;;;;;;5010269;28;19952;-71
2024/01/08 05:41:13;;;;;;;;;;;;;;;;;;5007749;28;20012;-70
2024/01/08 05:43:39;;;;;;;;;;;;;;;;;;5009996;28;20012;-71
2024/01/08 05:46:04;;;;;;;;;;;;;;;;;;5010834;28;19937;-71
2024/01/08 05:48:32;;;;;;;;;;;;;;;;;;5011496;28;19921;-71
2024/01/08 05:50:57;;;;;;;;;;;;;;;;;;5011776;28;19928;-71
2024/01/08 05:53:22;;;;;;;;;;;;;;;;;;5010661;28;19921;-71
2024/01/08 05:55:47;;;;;;;;;;;;;;;;;;5010010;28;20025;-71
2024/01/08 05:58:13;;;;;;;;;;;;;;;;;;5009267;28;20397;-71
2024/01/08 06:00:39;;;;;;;;;;;;;;;;;;5008662;28;20375;-71
2024/01/08 06:03:04;;;;;;;;;;;;;;;;;;5010980;28;20426;-70
2024/01/08 06:05:29;;;;;;;;;;;;;;;;;;5009878;28;19976;-70
2024/01/08 06:07:54;;;;;;;;;;;;;;;;;;5009702;28;19924;-70
2024/01/08 06:10:19;;;;;;;;;;;;;;;;;;5009348;28;19944;-71
2024/01/08 06:12:44;;;;;;;;;;;;;;;;;;5007781;28;19971;-70
2024/01/08 06:15:10;;;;;;;;;;;;;;;;;;5007633;28;19926;-70
2024/01/08 06:17:35;;;;;;;;;;;;;;;;;;5025020;28;19991;-70
2024/01/08 06:20:00;;;;;;;;;;;;;;;;;;5009826;28;19965;-70
2024/01/08 06:22:26;;;;;;;;;;;;;;;;;;5014085;28;19928;-70
2024/01/08 06:24:51;;;;;;;;;;;;;;;;;;5009418;28;19921;-70
2024/01/08 06:27:16;;;;;;;;;;;;;;;;;;5008786;28;20416;-70
2024/01/08 06:29:41;;;;;;;;;;;;;;;;;;5008922;28;20082;-70
2024/01/08 06:32:06;;;;;;;;;;;;;;;;;;5007806;28;19922;-71
2024/01/08 06:34:31;;;;;;;;;;;;;;;;;;5007801;28;19922;-70
2024/01/08 06:36:57;;;;;;;;;;;;;;;;;;5006251;28;20076;-69
2024/01/08 06:39:22;;;;;;;;;;;;;;;;;;5008946;28;20357;-70
2024/01/08 06:41:47;;;;;;;;;;;;;;;;;;5010499;28;19921;-70
2024/01/08 06:44:12;;;;;;;;;;;;;;;;;;5016101;28;19922;-71
2024/01/08 06:46:37;;;;;;;;;;;;;;;;;;5014294;28;19918;-71
2024/01/08 06:49:02;;;;;;;;;;;;;;;;;;5017831;28;19921;-71
2024/01/08 06:51:28;;;;;;;;;;;;;;;;;;5012975;28;19921;-71
2024/01/08 06:53:53;;;;;;;;;;;;;;;;;;5013010;28;19917;-71
2024/01/08 06:56:18;;;;;;;;;;;;;;;;;;5012074;28;19925;-71
2024/01/08 06:58:43;;;;;;;;;;;;;;;;;;5012581;28;20046;-71
2024/01/08 07:01:08;;;;;;;;;;;;;;;;;;5012676;28;20484;-70
2024/01/08 07:03:34;;;;;;;;;;;;;;;;;;5012825;28;19917;-71
2024/01/08 07:06:00;;;;;;;;;;;;;;;;;;5012603;28;19917;-71
2024/01/08 07:08:25;;;;;;;;;;;;;;;;;;5012385;28;19936;-71
2024/01/08 07:10:50;;;;;;;;;;;;;;;;;;5012367;28;19922;-71
2024/01/08 07:13:15;;;;;;;;;;;;;;;;;;5012575;28;19925;-71
2024/01/08 07:15:40;;;;;;;;;;;;;;;;;;5036211;28;19940;-71
2024/01/08 07:18:05;;;;;;;;;;;;;;;;;;5011715;28;19917;-71
2024/01/08 07:20:30;;;;;;;;;;;;;;;;;;5012518;28;20008;-71
2024/01/08 07:22:55;;;;;;;;;;;;;;;;;;5013028;28;19924;-71
2024/01/08 07:25:20;;;;;;;;;;;;;;;;;;5012919;28;19922;-71
2024/01/08 07:27:46;;;;;;;;;;;;;;;;;;5011920;28;20012;-71
2024/01/08 07:30:11;;;;;;;;;;;;;;;;;;5011767;28;20585;-71
2024/01/08 07:32:36;;;;;;;;;;;;;;;;;;5011942;28;19939;-70
2024/01/08 07:35:02;;;;;;;;;;;;;;;;;;5012322;28;19924;-71
2024/01/08 07:37:27;;;;;;;;;;;;;;;;;;5011515;28;20302;-71
2024/01/08 07:39:52;;;;;;;;;;;;;;;;;;5010576;28;20305;-71
2024/01/08 07:42:17;;;;;;;;;;;;;;;;;;5011486;28;19918;-71
2024/01/08 07:44:42;;;;;;;;;;;;;;;;;;5011387;28;19921;-71
2024/01/08 07:47:07;;;;;;;;;;;;;;;;;;5011679;28;19917;-71
2024/01/08 07:49:32;;;;;;;;;;;;;;;;;;5012194;28;20302;-70
2024/01/08 07:51:58;;;;;;;;;;;;;;;;;;5011901;28;19929;-70
2024/01/08 07:54:23;;;;;;;;;;;;;;;;;;5010176;28;19953;-71
2024/01/08 07:56:48;;;;;;;;;;;;;;;;;;5011795;28;20008;-71
2024/01/08 07:59:13;;;;;;;;;;;;;;;;;;5011257;28;20310;-70
2024/01/08 08:01:38;;;;;;;;;;;;;;;;;;5011030;28;19928;-71
2024/01/08 08:04:03;;;;;;;;;;;;;;;;;;5011177;28;19928;-70
2024/01/08 08:06:30;;;;;;;;;;;;;;;;;;5010127;28;20033;-71
2024/01/08 08:08:55;;;;;;;;;;;;;;;;;;5011246;28;19926;-70
2024/01/08 08:11:21;;;;;;;;;;;;;;;;;;5011057;28;19926;-70
2024/01/08 08:13:46;;;;;;;;;;;;;;;;;;5008781;28;19926;-71
2024/01/08 08:16:11;;;;;;;;;;;;;;;;;;5009884;28;19925;-71
2024/01/08 08:18:36;;;;;;;;;;;;;;;;;;5011855;28;19949;-70
2024/01/08 08:21:02;;;;;;;;;;;;;;;;;;5012336;28;19936;-70
2024/01/08 08:23:27;;;;;;;;;;;;;;;;;;5013088;28;20947;-70
2024/01/08 08:25:52;;;;;;;;;;;;;;;;;;5011555;28;20397;-70
2024/01/08 08:28:18;;;;;;;;;;;;;;;;;;5010523;28;19917;-70
2024/01/08 08:30:43;;;;;;;;;;;;;;;;;;5013331;28;19921;-70
2024/01/08 08:33:08;;;;;;;;;;;;;;;;;;5009508;28;19983;-70
2024/01/08 08:35:34;;;;;;;;;;;;;;;;;;5013772;28;19928;-70
2024/01/08 08:37:59;;;;;;;;;;;;;;;;;;5011264;28;20382;-70
2024/01/08 08:40:24;;;;;;;;;;;;;;;;;;5011231;28;19956;-70
2024/01/08 08:42:49;;;;;;;;;;;;;;;;;;5011127;28;20000;-68
2024/01/08 08:45:17;;;;;;;;;;;;;;;;;;5010816;28;19921;-68
2024/01/08 08:47:42;;;;;;;;;;;;;;;;;;5010592;28;20112;-68
2024/01/08 08:50:07;;;;;;;;;;;;;;;;;;5010458;28;19922;-69
2024/01/08 08:52:32;;;;;;;;;;;;;;;;;;5010725;28;20478;-68
2024/01/08 08:54:57;;;;;;;;;;;;;;;;;;5010540;28;19924;-68
2024/01/08 08:57:23;;;;;;;;;;;;;;;;;;5009506;28;19937;-68
2024/01/08 08:59:48;;;;;;;;;;;;;;;;;;5009968;28;19926;-68
2024/01/08 09:02:13;;;;;;;;;;;;;;;;;;5009417;28;20333;-68
2024/01/08 09:04:38;;;;;;;;;;;;;;;;;;5010234;28;19925;-68
2024/01/08 09:07:05;;;;;;;;;;;;;;;;;;5010133;28;20064;-68
2024/01/08 09:09:30;;;;;;;;;;;;;;;;;;5002457;28;19918;-68
2024/01/08 09:11:55;;;;;;;;;;;;;;;;;;5010456;28;19923;-67
2024/01/08 09:14:20;;;;;;;;;;;;;;;;;;5009663;28;19925;-67
2024/01/08 09:16:46;;;;;;;;;;;;;;;;;;5010252;28;20004;-68
2024/01/08 09:19:11;;;;;;;;;;;;;;;;;;5015019;28;19922;-68
2024/01/08 09:21:36;;;;;;;;;;;;;;;;;;5010660;28;19992;-67
2024/01/08 09:24:01;;;;;;;;;;;;;;;;;;5011602;28;20278;-68
2024/01/08 09:26:26;;;;;;;;;;;;;;;;;;5009439;28;20405;-68
2024/01/08 09:28:51;;;;;;;;;;;;;;;;;;5009971;28;19921;-68
2024/01/08 09:31:16;;;;;;;;;;;;;;;;;;5010261;28;19968;-68
2024/01/08 09:33:42;;;;;;;;;;;;;;;;;;5010263;28;20389;-68
2024/01/08 09:36:07;;;;;;;;;;;;;;;;;;5009532;28;19993;-69
2024/01/08 09:38:32;;;;;;;;;;;;;;;;;;5008610;28;19921;-68
2024/01/08 09:40:57;;;;;;;;;;;;;;;;;;5010465;28;19922;-68
2024/01/08 09:43:22;;;;;;;;;;;;;;;;;;5010067;28;20028;-68
2024/01/08 09:45:47;;;;;;;;;;;;;;;;;;5009942;28;20305;-68
2024/01/08 09:48:12;;;;;;;;;;;;;;;;;;5009680;28;20437;-69
2024/01/08 09:50:37;;;;;;;;;;;;;;;;;;5010182;28;19967;-68
2024/01/08 09:53:03;;;;;;;;;;;;;;;;;;5010336;28;19921;-68
2024/01/08 09:55:28;;;;;;;;;;;;;;;;;;5010591;28;19926;-68
2024/01/08 09:57:53;;;;;;;;;;;;;;;;;;5010143;28;20374;-68
2024/01/08 10:00:20;;;;;;;;;;;;;;;;;;5009391;28;19977;-68
2024/01/08 10:02:46;;;;;;;;;;;;;;;;;;5033804;28;19918;-68
2024/01/08 10:05:11;;;;;;;;;;;;;;;;;;5011058;28;19924;-68
2024/01/08 10:07:36;;;;;;;;;;;;;;;;;;5007948;28;20358;-68
2024/01/08 10:10:01;;;;;;;;;;;;;;;;;;5007907;28;19928;-68
2024/01/08 10:12:26;;;;;;;;;;;;;;;;;;5009089;28;19936;-68
2024/01/08 10:14:52;;;;;;;;;;;;;;;;;;5003898;28;19924;-68
2024/01/08 10:17:17;;;;;;;;;;;;;;;;;;5010116;28;19924;-67
2024/01/08 10:19:42;;;;;;;;;;;;;;;;;;5013184;28;19928;-68
2024/01/08 10:22:08;;;;;;;;;;;;;;;;;;5012843;28;20005;-67
2024/01/08 10:24:33;;;;;;;;;;;;;;;;;;5013887;28;20281;-67
2024/01/08 10:26:58;;;;;;;;;;;;;;;;;;5012711;28;19917;-67
2024/01/08 10:29:23;;;;;;;;;;;;;;;;;;5012338;28;19928;-67
2024/01/08 10:31:48;;;;;;;;;;;;;;;;;;5029283;28;19929;-67
2024/01/08 10:34:13;;;;;;;;;;;;;;;;;;5011830;28;20428;-67
2024/01/08 10:36:38;;;;;;;;;;;;;;;;;;5012299;28;19952;-67
2024/01/08 10:39:03;;;;;;;;;;;;;;;;;;5011559;28;20012;-69
2024/01/08 10:41:28;;;;;;;;;;;;;;;;;;5011942;28;20045;-69
2024/01/08 10:43:54;;;;;;;;;;;;;;;;;;5012985;28;19975;-69
2024/01/08 10:46:19;;;;;;;;;;;;;;;;;;5011514;28;20008;-69
2024/01/08 10:48:44;;;;;;;;;;;;;;;;;;5011914;28;19918;-69
2024/01/08 10:51:09;;;;;;;;;;;;;;;;;;5012191;28;19944;-69
2024/01/08 10:53:35;;;;;;;;;;;;;;;;;;5011711;28;19925;-66
2024/01/08 10:56:00;;;;;;;;;;;;;;;;;;5011956;28;20279;-69
2024/01/08 10:58:25;;;;;;;;;;;;;;;;;;5010666;28;19925;-69
2024/01/08 11:00:52;;;;;;;;;;;;;;;;;;5011733;28;20387;-69
2024/01/08 11:03:17;;;;;;;;;;;;;;;;;;5011151;28;19918;-69
2024/01/08 11:05:42;;;;;;;;;;;;;;;;;;5011728;28;19917;-68
2024/01/08 11:08:07;;;;;;;;;;;;;;;;;;5011536;28;19917;-69
2024/01/08 11:10:32;;;;;;;;;;;;;;;;;;5011628;28;19933;-68
2024/01/08 11:12:57;;;;;;;;;;;;;;;;;;5011609;28;19979;-66
2024/01/08 11:15:22;;;;;;;;;;;;;;;;;;5011117;28;19979;-69
2024/01/08 11:17:47;;;;;;;;;;;;;;;;;;5010861;28;19972;-68
2024/01/08 11:20:13;;;;;;;;;;;;;;;;;;5010695;28;20353;-69
2024/01/08 11:22:38;;;;;;;;;;;;;;;;;;5011300;28;19963;-69
2024/01/08 11:25:03;;;;;;;;;;;;;;;;;;5011310;28;19971;-68
2024/01/08 11:27:29;;;;;;;;;;;;;;;;;;5010216;28;20024;-69
2024/01/08 11:29:54;;;;;;;;;;;;;;;;;;5010260;28;20294;-69
2024/01/08 11:32:19;;;;;;;;;;;;;;;;;;5010337;28;19918;-69
2024/01/08 11:34:44;;;;;;;;;;;;;;;;;;5011074;28;20016;-69
2024/01/08 11:37:09;;;;;;;;;;;;;;;;;;5010768;28;19924;-68
2024/01/08 11:39:34;;;;;;;;;;;;;;;;;;5011012;28;20000;-69
2024/01/08 11:41:59;;;;;;;;;;;;;;;;;;5011398;28;19917;-69
2024/01/08 11:44:25;;;;;;;;;;;;;;;;;;5004504;28;19995;-68
2024/01/08 11:46:50;;;;;;;;;;;;;;;;;;5012100;28;19924;-69
2024/01/08 11:49:15;;;;;;;;;;;;;;;;;;5010415;28;19926;-69
2024/01/08 11:51:40;;;;;;;;;;;;;;;;;;5010986;28;19929;-68
2024/01/08 11:54:08;;;;;;;;;;;;;;;;;;5010766;28;20397;-69
2024/01/08 11:56:33;;;;;;;;;;;;;;;;;;5010177;28;19975;-69
2024/01/08 11:58:58;;;;;;;;;;;;;;;;;;5010670;28;19925;-69
2024/01/08 12:01:24;;;;;;;;;;;;;;;;;;5008462;28;19918;-68
2024/01/08 12:03:49;;;;;;;;;;;;;;;;;;5010596;28;19918;-66
2024/01/08 12:06:14;;;;;;;;;;;;;;;;;;5010182;28;19925;-69
2024/01/08 12:08:39;;;;;;;;;;;;;;;;;;5010065;28;19924;-69
2024/01/08 12:11:04;;;;;;;;;;;;;;;;;;5010379;28;20290;-66
2024/01/08 12:13:29;;;;;;;;;;;;;;;;;;5010211;28;19922;-67
2024/01/08 12:15:54;;;;;;;;;;;;;;;;;;5010371;28;19917;-66
2024/01/08 12:18:19;;;;;;;;;;;;;;;;;;5008210;28;19929;-67
2024/01/08 12:20:44;;;;;;;;;;;;;;;;;;5005698;28;19917;-66
2024/01/08 12:23:09;;;;;;;;;;;;;;;;;;5010322;28;20062;-66
2024/01/08 12:25:34;;;;;;;;;;;;;;;;;;5010041;28;19917;-67
2024/01/08 12:28:00;;;;;;;;;;;;;;;;;;5009898;28;19949;-67
2024/01/08 12:30:25;;;;;;;;;;;;;;;;;;5009149;28;19925;-67
2024/01/08 12:32:50;;;;;;;;;;;;;;;;;;5009794;28;19929;-67
2024/01/08 12:35:17;;;;;;;;;;;;;;;;;;5009537;28;19918;-67
2024/01/08 12:37:42;;;;;;;;;;;;;;;;;;5009580;28;19971;-67
2024/01/08 12:40:07;;;;;;;;;;;;;;;;;;5009161;28;20020;-68
2024/01/08 12:42:32;;;;;;;;;;;;;;;;;;5009658;28;20333;-67
2024/01/08 12:44:58;;;;;;;;;;;;;;;;;;5010128;28;20329;-68
2024/01/08 12:47:24;;;;;;;;;;;;;;;;;;5009401;28;19924;-67
2024/01/08 12:49:49;;;;;;;;;;;;;;;;;;5009973;28;19921;-67
2024/01/08 12:52:14;;;;;;;;;;;;;;;;;;5009530;28;20452;-67
2024/01/08 12:54:39;;;;;;;;;;;;;;;;;;5010213;28;20417;-66
2024/01/08 12:57:04;;;;;;;;;;;;;;;;;;5009775;28;19921;-66
2024/01/08 12:59:29;;;;;;;;;;;;;;;;;;5009668;28;19921;-67
2024/01/08 13:01:54;;;;;;;;;;;;;;;;;;5009379;28;19968;-66
2024/01/08 13:04:20;;;;;;;;;;;;;;;;;;5008963;28;19917;-67
2024/01/08 13:06:45;;;;;;;;;;;;;;;;;;5009274;28;20318;-67
2024/01/08 13:09:11;;;;;;;;;;;;;;;;;;5009099;28;19928;-66
2024/01/08 13:11:36;;;;;;;;;;;;;;;;;;5009009;28;19917;-67
2024/01/08 13:14:04;;;;;;;;;;;;;;;;;;5008865;28;19917;-68
2024/01/08 13:16:29;;;;;;;;;;;;;;;;;;5008475;28;20011;-67
2024/01/08 13:18:54;;;;;;;;;;;;;;;;;;5008119;28;20004;-67
2024/01/08 13:21:19;;;;;;;;;;;;;;;;;;5009215;28;20345;-67
2024/01/08 13:23:45;;;;;;;;;;;;;;;;;;5008890;28;19917;-66
2024/01/08 13:26:12;;;;;;;;;;;;;;;;;;5008234;28;19961;-67
2024/01/08 13:28:37;;;;;;;;;;;;;;;;;;5008462;28;20587;-67
2024/01/08 13:31:03;;;;;;;;;;;;;;;;;;5009283;28;19917;-67
2024/01/08 13:33:28;;;;;;;;;;;;;;;;;;5008996;28;19918;-67
2024/01/08 13:35:55;;;;;;;;;;;;;;;;;;5008914;28;19928;-67
2024/01/08 13:38:20;;;;;;;;;;;;;;;;;;5007658;28;19922;-66
2024/01/08 13:40:46;;;;;;;;;;;;;;;;;;5008137;28;19929;-67
2024/01/08 13:43:11;;;;;;;;;;;;;;;;;;5009071;28;20004;-66
2024/01/08 13:45:36;;;;;;;;;;;;;;;;;;5008944;28;20338;-67
2024/01/08 13:48:02;;;;;;;;;;;;;;;;;;5009050;28;19921;-66
2024/01/08 13:50:28;;;;;;;;;;;;;;;;;;5009268;28;19964;-67
2024/01/08 13:52:53;;;;;;;;;;;;;;;;;;5013033;28;19922;-67
2024/01/08 13:55:18;;;;;;;;;;;;;;;;;;5012431;28;19929;-67
2024/01/08 13:57:44;;;;;;;;;;;;;;;;;;5011857;28;19922;-67
2024/01/08 14:00:09;;;;;;;;;;;;;;;;;;5012604;28;20293;-68
2024/01/08 14:02:34;;;;;;;;;;;;;;;;;;5013339;28;19917;-67
2024/01/08 14:04:59;;;;;;;;;;;;;;;;;;5013839;28;20275;-67
2024/01/08 14:07:24;;;;;;;;;;;;;;;;;;5013268;28;20347;-67
2024/01/08 14:09:49;;;;;;;;;;;;;;;;;;5013473;28;20000;-67
2024/01/08 14:12:14;;;;;;;;;;;;;;;;;;5013124;28;19951;-67
2024/01/08 14:14:40;;;;;;;;;;;;;;;;;;5013501;28;19964;-67
2024/01/08 14:17:05;;;;;;;;;;;;;;;;;;5013197;28;19928;-67
2024/01/08 14:19:30;;;;;;;;;;;;;;;;;;5013419;28;19921;-67
2024/01/08 14:21:55;;;;;;;;;;;;;;;;;;5011354;28;20289;-67
2024/01/08 14:24:20;;;;;;;;;;;;;;;;;;5012390;28;19917;-68
2024/01/08 14:26:45;;;;;;;;;;;;;;;;;;5012838;28;19929;-68
2024/01/08 14:29:10;;;;;;;;;;;;;;;;;;5013570;28;19925;-68
2024/01/08 14:31:35;;;;;;;;;;;;;;;;;;5013552;28;19995;-67
2024/01/08 14:34:02;;;;;;;;;;;;;;;;;;5013525;28;20571;-68
2024/01/08 14:36:27;;;;;;;;;;;;;;;;;;5012761;28;19922;-68
2024/01/08 14:38:52;;;;;;;;;;;;;;;;;;5012826;28;19927;-68
2024/01/08 14:41:17;;;;;;;;;;;;;;;;;;5013298;28;19921;-68
2024/01/08 14:43:43;;;;;;;;;;;;;;;;;;5013352;28;19971;-68
2024/01/08 14:46:08;;;;;;;;;;;;;;;;;;5012646;28;20339;-68
2024/01/08 14:48:33;;;;;;;;;;;;;;;;;;5012854;28;19917;-68
2024/01/08 14:51:00;;;;;;;;;;;;;;;;;;5013200;28;19959;-68
2024/01/08 14:53:25;;;;;;;;;;;;;;;;;;5013283;28;19921;-68
2024/01/08 14:55:50;;;;;;;;;;;;;;;;;;5013221;28;19917;-68
2024/01/08 14:58:15;;;;;;;;;;;;;;;;;;5012295;28;19924;-68
2024/01/08 15:00:40;;;;;;;;;;;;;;;;;;5012823;28;20016;-67
2024/01/08 15:03:05;;;;;;;;;;;;;;;;;;5012417;28;20008;-65
2024/01/08 15:05:31;;;;;;;;;;;;;;;;;;5012778;28;19917;-68
2024/01/08 15:07:56;;;;;;;;;;;;;;;;;;5012181;28;20306;-68
2024/01/08 15:10:21;;;;;;;;;;;;;;;;;;5011741;28;19960;-68
2024/01/08 15:12:46;;;;;;;;;;;;;;;;;;5012662;28;19922;-68
2024/01/08 15:15:11;;;;;;;;;;;;;;;;;;5013228;28;19960;-68
2024/01/08 15:17:36;;;;;;;;;;;;;;;;;;5012406;28;19922;-68
2024/01/08 15:20:02;;;;;;;;;;;;;;;;;;5013068;28;19921;-68
2024/01/08 15:22:28;;;;;;;;;;;;;;;;;;5012479;28;19945;-68
2024/01/08 15:24:55;;;;;;;;;;;;;;;;;;5012365;28;19949;-68
2024/01/08 15:27:21;;;;;;;;;;;;;;;;;;5008689;28;19964;-68
2024/01/08 15:29:46;;;;;;;;;;;;;;;;;;5009843;28;19917;-68
2024/01/08 15:32:12;;;;;;;;;;;;;;;;;;5011817;28;19979;-68
2024/01/08 15:34:38;;;;;;;;;;;;;;;;;;5011871;28;20354;-68
2024/01/08 15:37:03;;;;;;;;;;;;;;;;;;5011745;28;19917;-67
2024/01/08 15:39:28;;;;;;;;;;;;;;;;;;5011828;28;19921;-70
2024/01/08 15:41:53;;;;;;;;;;;;;;;;;;5011676;28;19928;-68
2024/01/08 15:44:18;;;;;;;;;;;;;;;;;;5011606;28;19921;-67
2024/01/08 15:46:43;;;;;;;;;;;;;;;;;;5026526;28;19925;-69
2024/01/08 15:49:09;;;;;;;;;;;;;;;;;;5027091;28;20285;-68
2024/01/08 15:51:34;;;;;;;;;;;;;;;;;;5026714;28;19937;-68
2024/01/08 15:53:59;;;;;;;;;;;;;;;;;;5011733;28;19924;-68
2024/01/08 15:56:24;;;;;;;;;;;;;;;;;;5026281;28;19933;-69
2024/01/08 15:58:50;;;;;;;;;;;;;;;;;;5011555;28;19964;-68
2024/01/08 16:01:15;;;;;;;;;;;;;;;;;;5026188;28;19923;-68
2024/01/08 16:03:40;;;;;;;;;;;;;;;;;;5011290;28;20557;-69
2024/01/08 16:06:05;;;;;;;;;;;;;;;;;;5010731;28;19917;-69
2024/01/08 16:08:30;;;;;;;;;;;;;;;;;;5011393;28;19944;-68
2024/01/08 16:10:55;;;;;;;;;;;;;;;;;;5010938;28;19932;-68
2024/01/08 16:13:20;;;;;;;;;;;;;;;;;;5011190;28;20341;-68
2024/01/08 16:15:46;;;;;;;;;;;;;;;;;;5010417;28;20378;-68
2024/01/08 16:18:13;;;;;;;;;;;;;;;;;;5010571;28;19972;-69
2024/01/08 16:20:38;;;;;;;;;;;;;;;;;;5011233;28;19917;-68
2024/01/08 16:23:04;;;;;;;;;;;;;;;;;;5011146;28;19924;-68
2024/01/08 16:25:29;;;;;;;;;;;;;;;;;;5011497;28;20453;-68
2024/01/08 16:27:54;;;;;;;;;;;;;;;;;;5010221;28;20521;-67
2024/01/08 16:30:19;;;;;;;;;;;;;;;;;;5010827;28;20043;-67
2024/01/08 16:32:45;;;;;;;;;;;;;;;;;;5011014;28;19932;-67